ADDS METAR Data INFO
IDs: Format: Raw Decoded Include TAF

Data at: 0237 UTC 26 Jul 2017

KOCH 260235Z 16005KT 10SM CLR 27/23 A3006 RMK AO1
KOCH 260215Z 17003KT 10SM CLR 27/23 A3005 RMK AO1
KOCH 260155Z 14004KT 10SM CLR 28/23 A3005 RMK AO1
KOCH 260135Z 13004KT 10SM CLR 28/23 A3005 RMK AO1
KOCH 260115Z 13005KT 10SM CLR 29/23 A3005 RMK AO1
KOCH 260055Z 14005KT 10SM CLR 30/23 A3005 RMK AO1
KOCH 260035Z 15007KT 10SM CLR 31/23 A3005 RMK AO1
KOCH 260015Z 14005KT 10SM CLR 31/23 A3004 RMK AO1
KOCH 252355Z 15006KT 10SM CLR 32/23 A3004 RMK AO1 10340 20320 57007
KOCH 252335Z 14006KT 10SM CLR 32/23 A3003 RMK AO1
KOCH 252315Z 15006KT 10SM CLR 32/24 A3003 RMK AO1
KOCH 252255Z 14005KT 10SM FEW050 33/23 A3003 RMK AO1
KOCH 252235Z 16007KT 10SM SCT048 SCT050 33/24 A3004 RMK AO1
KOCH 252215Z 14006KT 10SM SCT046 BKN060 33/23 A3004 RMK AO1
KOCH 252155Z 17007KT 10SM FEW048 BKN060 33/23 A3005 RMK AO1
KOCH 252135Z 20008KT 10SM SCT050 34/22 A3005 RMK AO1
KOCH 252115Z 20007KT 10SM BKN050 33/22 A3006 RMK AO1
KOCH 252055Z 16006KT 10SM FEW048 SCT055 33/23 A3006 RMK AO1 57014
KOCH 252035Z 15008KT 10SM SCT048 BKN055 33/23 A3006 RMK AO1
KOCH 252015Z 18008KT 10SM FEW048 33/23 A3007 RMK AO1
KOCH 251955Z 19007G15KT 10SM FEW048 33/23 A3007 RMK AO1
KOCH 251935Z 20009KT 10SM FEW043 SCT049 33/22 A3008 RMK AO1
KOCH 251915Z 17004KT 10SM FEW041 SCT049 32/23 A3008 RMK AO1
KOCH 251855Z 18008KT 10SM FEW041 FEW047 33/23 A3009 RMK AO1
KOCH 251835Z 25003KT 10SM FEW039 32/23 A3009 RMK AO1
KOCH 251815Z 26005KT 10SM FEW041 32/23 A3010 RMK AO1
KOCH 251755Z 23007KT 190V260 10SM CLR 32/23 A3010 RMK AO1 10320 20230 57003
KOCH 251735Z 21008KT 10SM FEW035 31/23 A3010 RMK AO1
KOCH 251715Z 24006KT 10SM FEW033 31/23 A3010 RMK AO1
KOCH 251655Z 27007KT 10SM CLR 31/23 A3010 RMK AO1
KOCH 251635Z 22011KT 10SM FEW027 31/23 A3011 RMK AO1
KOCH 251615Z 20008KT 10SM SCT027 30/24 A3011 RMK AO1
KOCH 251555Z 21008KT 10SM FEW023 30/23 A3011 RMK AO1
KOCH 251535Z 23007KT 190V250 10SM FEW023 29/24 A3011 RMK AO1
KOCH 251515Z 16005KT 7SM FEW015 28/24 A3011 RMK AO1
KOCH 251455Z 19005KT 10SM FEW015 28/24 A3011 RMK AO1 52010
KOCH 251435Z 23007KT 9SM CLR 27/24 A3011 RMK AO1
KOCH 251415Z 22006KT 9SM CLR 27/24 A3011 RMK AO1
KOCH 251355Z 19004KT 8SM CLR 26/24 A3011 RMK AO1
KOCH 251335Z 17003KT 7SM CLR 26/23 A3011 RMK AO1
KOCH 251315Z 12004KT 6SM CLR 24/23 A3011 RMK AO1
KOCH 251255Z 12003KT 6SM FEW120 24/23 A3010 RMK AO1
KOCH 251235Z 09003KT 5SM BKN120 24/23 A3010 RMK AO1
KOCH 251215Z 10004KT 5SM BKN120 24/23 A3008 RMK AO1
KOCH 251155Z 00000KT 4SM BKN120 23/23 A3008 RMK AO1 70149 10250 20230 52017
KOCH 251135Z 00000KT 4SM OVC120 23/22 A3007 RMK AO1
KOCH 251115Z 00000KT 7SM BKN110 24/23 A3006 RMK AO1
KOCH 251055Z 18003KT 8SM BKN110 24/23 A3006 RMK AO1
KOCH 251035Z 22005KT 8SM BKN110 24/23 A3005 RMK AO1
KOCH 251015Z 22007KT 8SM FEW100 24/23 A3005 RMK AO1
KOCH 250955Z 20003KT 7SM BKN100 24/23 A3005 RMK AO1
KOCH 250935Z 00000KT 7SM FEW100 24/23 A3004 RMK AO1
KOCH 250915Z 00000KT 8SM CLR 24/23 A3004 RMK AO1
KOCH 250855Z 15003KT 7SM CLR 24/23 A3003 RMK AO1 52003
KOCH 250835Z 15003KT 8SM CLR 24/23 A3003 RMK AO1
KOCH 250815Z 19003KT 8SM CLR 24/23 A3002 RMK AO1
KOCH 250755Z 20004KT 8SM CLR 24/23 A3002 RMK AO1
KOCH 250735Z 20003KT 8SM CLR 25/23 A3002 RMK AO1
KOCH 250715Z 19004KT 8SM CLR 25/23 A3002 RMK AO1
KOCH 250655Z 17004KT 8SM CLR 25/23 A3002 RMK AO1
KOCH 250635Z 15005KT 8SM CLR 25/24 A3002 RMK AO1
KOCH 250615Z 16004KT 10SM CLR 25/24 A3002 RMK AO1
KOCH 250555Z 16005KT 9SM CLR 25/24 A3002 RMK AO1 10280 20250 402900220 52014
KOCH 250535Z 13004KT 10SM CLR 25/24 A3002 RMK AO1
KOCH 250515Z 14004KT 10SM CLR 25/24 A3002 RMK AO1
KOCH 250455Z 13003KT 10SM CLR 25/24 A3001 RMK AO1
KOCH 250435Z 11005KT 10SM CLR 25/24 A3001 RMK AO1
KOCH 250415Z 11003KT 10SM CLR 25/24 A3001 RMK AO1
KOCH 250355Z 10003KT 10SM CLR 25/24 A3000 RMK AO1
KOCH 250335Z 11003KT 10SM CLR 26/24 A3000 RMK AO1
KOCH 250315Z 11004KT 10SM CLR 26/24 A2999 RMK AO1
KOCH 250255Z 15005KT 9SM CLR 26/24 A2998 RMK AO1 52010
KOCH 250235Z 14004KT 10SM CLR 26/24 A2997 RMK AO1
KOCH 250215Z 14004KT 10SM CLR 26/24 A2997 RMK AO1
KOCH 250155Z 12005KT 7SM CLR 26/24 A2996 RMK AO1
KOCH 250135Z 11004KT 7SM CLR 26/24 A2995 RMK AO1
KOCH 250115Z 11003KT 8SM CLR 26/24 A2995 RMK AO1
KOCH 250055Z 13003KT 5SM CLR 27/25 A2995 RMK AO1
KOCH 250035Z 14003KT 9SM CLR 27/25 A2995 RMK AO1
KOCH 250015Z 00000KT 9SM CLR 27/25 A2995 RMK AO1
KOCH 242355Z 00000KT 10SM CLR 28/25 A2995 RMK AO1 60001 10290 20250 57007
KOCH 242335Z 00000KT 10SM CLR 28/24 A2995 RMK AO1
KOCH 242315Z 25003KT 10SM CLR 29/24 A2995 RMK AO1
KOCH 242255Z 22006KT 9SM CLR 29/24 A2995 RMK AO1
KOCH 242235Z 23004KT 10SM CLR 29/24 A2995 RMK AO1
KOCH 242215Z 23006KT 10SM CLR 29/24 A2996 RMK AO1
KOCH 242155Z 23003KT 10SM FEW085 28/24 A2996 RMK AO1
KOCH 242135Z 25003KT 10SM SCT085 28/23 A2997 RMK AO1
KOCH 242115Z 22008KT 10SM FEW025 SCT031 BKN085 28/23 A2997 RMK AO1
KOCH 242055Z 25006KT 10SM FEW024 SCT031 BKN085 29/24 A2997 RMK AO1 60001 57010
KOCH 242035Z 24007KT 10SM FEW027 FEW075 28/24 A2998 RMK AO1
KOCH 242015Z 23004KT 10SM CLR 27/24 A2998 RMK AO1
KOCH 241955Z 24005KT 10SM FEW110 27/23 A2998 RMK AO1
KOCH 241935Z 25004KT 10SM CLR 27/23 A2998 RMK AO1
KOCH 241915Z 24007KT 10SM CLR 27/23 A2999 RMK AO1
KOCH 241855Z 22005KT 10SM FEW050 BKN090 27/23 A2999 RMK AO1 P0001
KOCH 241835Z 23004KT 10SM SCT090 26/23 A2999 RMK AO1
KOCH 241815Z 24003KT 10SM SCT080 26/23 A3000 RMK AO1
KOCH 241755Z 28003KT 10SM SCT080 25/23 A3000 RMK AO1 60148 10250 20220 57010
KOCH 241735Z 22005KT 10SM CLR 24/22 A2999 RMK AO1
KOCH 241715Z 22004KT 10SM CLR 24/22 A3000 RMK AO1
KOCH 241655Z 18007KT 10SM FEW034 23/22 A2999 RMK AO1 P0007
KOCH 241635Z 19008KT 8SM SCT030 BKN039 OVC060 23/21 A3000 RMK AO1 LTG DSNT SW P0006
KOCH 241615Z 22008G14KT 10SM OVC060 22/21 A3002 RMK AO1 LTG DSNT SW P0004
KOCH 241555Z 22009KT 10SM BKN050 OVC070 22/21 A3002 RMK AO1 LTG DSNT ALQDS TSB13E29 P0016
KOCH 241535Z 27007KT 10SM SCT060 OVC070 22/20 A3004 RMK AO1 LTG DSNT W TSB13E29 P0008
KOCH 241515Z 28010KT 10SM TS FEW030 BKN060 OVC085 22/20 A3003 RMK AO1 LTG DSNT ALQDS TSB13 P0002
KOCH 241455Z 30004KT 10SM FEW031 SCT040 BKN048 22/21 A3003 RMK AO1 LTG DSNT ALQDS TSE42 P0007 60125 52020